Kirishima Maru No.5 — JD2506 — position and weather

sailwx.info

Track history (hours):
 
Tides and Currents Weather Stations Pressure Air Temp Water Temp Dewpoint Dewpoint Depression Visibility Wind Speed Wind Dir Waves Ship Positions

Kirishima Maru No.5

Last reported at 2016-Dec-07 02:25 UTC. Time now 2016-Dec-11 10:14 UTC.
Position N 34°02' E 134°58'.

Length 105 m; draft 5.4 m.

Type: Tanker. MMSI: 431000338.

Date/timePositionNaut miles runAvg speedWind from/ knotsBaromVisibWave heightAir tempDewpointWater temp
2016-Dec-07 02:25N 34°02' E 134°58'1314.7
2016-Dec-07 01:33N 34°14' E 134°58'1514.7
2016-Dec-07 00:32N 34°29' E 135°01'9 8.6
2016-Dec-06 23:33N 34°35' E 134°54'8 0.3
2016-Dec-05 23:33N 34°36' E 135°03'1211.5
2016-Dec-05 22:33N 34°25' E 135°03'1312.6
2016-Dec-05 21:33N 34°13' E 134°59'  
2016-Dec-01 18:33N 34°07' E 134°58'1716.5
2016-Dec-01 17:31N 34°24' E 134°60'1212.6
2016-Dec-01 16:32N 34°37' E 134°58'  
2016-Nov-27 05:28N 34°37' E 134°59'8 9.3
2016-Nov-27 04:33N 34°31' E 135°04'1313.1
2016-Nov-27 03:33N 34°18' E 134°60'1413.2
2016-Nov-27 02:31N 34°04' E 134°59'  
Track history (hours):
 
Tides and Currents Weather Stations Pressure Air Temp Water Temp Dewpoint Dewpoint Depression Visibility Wind Speed Wind Dir Waves Ship Positions

Kirishima Maru No.5

Last reported at 2016-Dec-07 02:25 UTC. Time now 2016-Dec-11 10:14 UTC.
Position N 34°02' E 134°58'.

Length 105 m; draft 5.4 m.

Type: Tanker. MMSI: 431000338.

Date/timePositionNaut miles runAvg speedWind from/ knotsBaromVisibWave heightAir tempDewpointWater temp
2016-Dec-07 02:25N 34°02' E 134°58'1314.7
2016-Dec-07 01:33N 34°14' E 134°58'1514.7
2016-Dec-07 00:32N 34°29' E 135°01'9 8.6
2016-Dec-06 23:33N 34°35' E 134°54'8 0.3
2016-Dec-05 23:33N 34°36' E 135°03'1211.5
2016-Dec-05 22:33N 34°25' E 135°03'1312.6
2016-Dec-05 21:33N 34°13' E 134°59'  
2016-Dec-01 18:33N 34°07' E 134°58'1716.5
2016-Dec-01 17:31N 34°24' E 134°60'1212.6
2016-Dec-01 16:32N 34°37' E 134°58'  
2016-Nov-27 05:28N 34°37' E 134°59'8 9.3
2016-Nov-27 04:33N 34°31' E 135°04'1313.1
2016-Nov-27 03:33N 34°18' E 134°60'1413.2
2016-Nov-27 02:31N 34°04' E 134°59'  

Dump ship's entire track history